Parker Lake, Arizona
Current Conditions -  °F | °C
As of 6:56 PM on Saturday 22 Nov 2014 (Local Time) from KFHU Reporting Station
Clear Clear  
Wind Chill: 52°   Ceiling: Unl
Heat Index: 52°   Visibility: 10mi
Dew Point: 23°   Wind: 9mph
Humidity: 32%   Direction: 270°W
Pressure: 30.07"   Gusts: NA
Location:  31.4041°N, 110.306°W
Report Text: KFHU 230156Z AUTO 27008KT 10SM CLR 11/M05 A3007 RMK AO2 SLP169 T01111050 $
Loading
Personal Weather Stations






























Interactive Weather Map New forecast layout! Learn more

10-Day Weather Forecast

Advertisements
Track Severe Weather on mobile